createdAt,value
2022-08-26T00:01:15.336Z,25.70
2022-08-26T00:03:46.654Z,25.70
2022-08-26T00:06:20.873Z,25.70
2022-08-26T00:08:50.380Z,25.70
2022-08-26T00:11:26.832Z,25.70
2022-08-26T00:13:54.847Z,25.70
2022-08-26T00:16:27.985Z,25.80
2022-08-26T00:19:00.012Z,25.70
2022-08-26T00:21:30.949Z,25.80
2022-08-26T00:24:01.884Z,25.80
2022-08-26T00:26:34.588Z,25.80
2022-08-26T00:29:05.922Z,25.90
2022-08-26T00:31:37.218Z,25.90
2022-08-26T00:34:09.635Z,25.90
2022-08-26T00:36:41.387Z,25.90
2022-08-26T00:39:13.180Z,25.90
2022-08-26T00:41:44.698Z,26.00
2022-08-26T00:44:16.428Z,26.00
2022-08-26T00:46:49.880Z,26.00
2022-08-26T00:49:25.307Z,26.00
2022-08-26T00:51:58.612Z,26.00
2022-08-26T00:54:34.680Z,26.00
2022-08-26T00:57:15.992Z,26.10
2022-08-26T00:59:43.703Z,26.10
2022-08-26T01:02:20.229Z,26.10
2022-08-26T01:04:48.219Z,26.10
2022-08-26T01:07:21.310Z,26.10
2022-08-26T01:09:52.490Z,26.20
2022-08-26T01:12:25.999Z,26.20
2022-08-26T01:14:57.854Z,26.20
2022-08-26T01:17:29.116Z,26.20
2022-08-26T01:42:52.352Z,26.50
2022-08-26T01:45:30.066Z,26.60
2022-08-26T01:48:03.770Z,26.60
2022-08-26T01:50:37.373Z,26.70
2022-08-26T01:53:13.995Z,26.70
2022-08-26T01:55:47.754Z,26.80
2022-08-26T01:58:22.959Z,26.80
2022-08-26T02:00:55.235Z,26.90
2022-08-26T02:03:26.591Z,27.00
2022-08-26T02:06:15.347Z,27.00
2022-08-26T02:08:48.975Z,27.00
2022-08-26T02:11:22.696Z,27.10
2022-08-26T02:13:56.665Z,27.10
2022-08-26T02:16:30.333Z,27.20
2022-08-26T02:19:03.843Z,27.20
2022-08-26T02:21:35.824Z,27.20
2022-08-26T02:24:09.261Z,27.30
2022-08-26T02:26:40.626Z,27.40
2022-08-26T02:29:13.883Z,27.50
2022-08-26T02:31:45.868Z,27.50
2022-08-26T02:34:19.010Z,27.60
2022-08-26T02:36:50.946Z,27.70
2022-08-26T02:39:22.533Z,27.80
2022-08-26T02:41:56.406Z,27.90
2022-08-26T02:44:27.341Z,28.00
2022-08-26T02:46:58.516Z,28.10
2022-08-26T02:49:31.595Z,28.20
2022-08-26T02:52:02.440Z,28.20
2022-08-26T02:54:34.186Z,28.30
2022-08-26T02:57:05.551Z,28.30
2022-08-26T02:59:37.981Z,28.30
2022-08-26T03:02:11.063Z,28.40
2022-08-26T03:04:57.433Z,28.30
2022-08-26T03:07:15.803Z,28.30
2022-08-26T03:09:46.941Z,28.30
2022-08-26T03:12:17.869Z,28.40
2022-08-26T03:14:50.812Z,28.40
2022-08-26T03:17:23.173Z,28.50
2022-08-26T03:19:57.303Z,28.60
2022-08-26T03:22:28.767Z,28.70
2022-08-26T03:24:59.820Z,28.70
2022-08-26T03:27:30.872Z,28.80
2022-08-26T03:30:04.869Z,28.80
2022-08-26T03:32:36.996Z,28.80
2022-08-26T03:35:08.751Z,28.70
2022-08-26T03:37:40.260Z,28.80
2022-08-26T03:40:12.733Z,28.70
2022-08-26T03:42:45.731Z,28.60
2022-08-26T03:45:17.260Z,28.60
2022-08-26T03:47:49.297Z,28.60
2022-08-26T03:50:23.026Z,28.60
2022-08-26T03:52:56.479Z,28.50
2022-08-26T03:55:29.501Z,28.50
2022-08-26T03:58:00.948Z,28.50
2022-08-26T04:00:32.296Z,28.40
2022-08-26T04:03:04.487Z,28.40
2022-08-26T04:05:35.458Z,28.40
2022-08-26T04:08:07.167Z,28.40
2022-08-26T04:10:40.090Z,28.40
2022-08-26T04:13:10.745Z,28.40
2022-08-26T04:15:42.857Z,28.40
2022-08-26T04:18:14.278Z,28.40
2022-08-26T04:20:45.481Z,28.40
2022-08-26T04:23:17.920Z,28.40
2022-08-26T04:25:48.738Z,28.50
2022-08-26T04:28:20.517Z,28.50
2022-08-26T04:30:51.634Z,28.60
2022-08-26T04:33:33.078Z,28.60
2022-08-26T04:35:57.801Z,28.60
2022-08-26T04:38:29.154Z,28.70
2022-08-26T04:41:00.060Z,28.70
2022-08-26T04:43:31.914Z,28.70
2022-08-26T04:46:07.207Z,28.70
2022-08-26T04:48:38.499Z,28.60
2022-08-26T04:51:11.218Z,28.60
2022-08-26T04:53:42.077Z,28.60
2022-08-26T04:56:13.016Z,28.60
2022-08-26T04:58:43.932Z,28.60
2022-08-26T05:01:14.807Z,28.60
2022-08-26T05:03:46.100Z,28.60
2022-08-26T05:06:19.102Z,28.60
2022-08-26T05:08:50.290Z,28.50
2022-08-26T05:11:21.520Z,28.50
2022-08-26T05:13:53.050Z,28.40
2022-08-26T05:16:24.428Z,28.30
2022-08-26T05:18:56.179Z,28.30
2022-08-26T05:21:30.787Z,28.20
2022-08-26T05:24:03.282Z,28.20
2022-08-26T05:26:34.624Z,28.30
2022-08-26T05:29:07.121Z,28.40
2022-08-26T05:31:38.735Z,28.40
2022-08-26T05:34:09.831Z,28.60
2022-08-26T05:36:41.561Z,28.70
2022-08-26T05:39:12.779Z,28.70
2022-08-26T05:41:45.321Z,28.70
2022-08-26T05:44:19.457Z,28.70
2022-08-26T05:47:02.063Z,28.70
2022-08-26T05:49:34.459Z,28.60
2022-08-26T05:52:07.042Z,28.60
2022-08-26T05:54:41.160Z,28.60
2022-08-26T05:57:13.402Z,28.60
2022-08-26T05:59:44.204Z,28.60
2022-08-26T06:02:16.745Z,28.60
2022-08-26T06:04:47.565Z,28.60
2022-08-26T06:07:19.546Z,28.50
2022-08-26T06:09:51.902Z,28.50
2022-08-26T06:12:22.831Z,28.40
2022-08-26T06:14:53.675Z,28.30
2022-08-26T06:17:24.618Z,28.20
2022-08-26T06:19:55.807Z,28.10
2022-08-26T06:22:28.014Z,28.00
2022-08-26T06:25:00.726Z,27.80
2022-08-26T06:27:32.926Z,27.80
2022-08-26T06:30:04.247Z,27.60
2022-08-26T06:32:35.216Z,27.50
2022-08-26T06:35:06.690Z,27.40
2022-08-26T06:37:38.908Z,27.40
2022-08-26T06:40:10.203Z,27.30
2022-08-26T06:42:43.105Z,27.30
2022-08-26T06:45:14.573Z,27.30
2022-08-26T06:47:45.622Z,27.30
2022-08-26T06:50:18.729Z,27.40
2022-08-26T06:52:50.163Z,27.40
2022-08-26T06:55:21.200Z,27.50
2022-08-26T06:57:53.408Z,27.60
2022-08-26T07:00:24.467Z,27.70
2022-08-26T07:02:55.453Z,27.70
2022-08-26T07:05:28.135Z,27.70
2022-08-26T07:07:59.935Z,27.80
2022-08-26T07:10:30.856Z,27.90
2022-08-26T07:13:02.158Z,27.90
2022-08-26T07:15:34.937Z,27.90
2022-08-26T07:18:06.193Z,27.90
2022-08-26T07:20:42.375Z,27.90
2022-08-26T07:23:15.288Z,27.80
2022-08-26T07:25:47.659Z,27.80
2022-08-26T07:28:18.581Z,27.70
2022-08-26T07:30:49.752Z,27.70
2022-08-26T07:33:21.307Z,27.60
2022-08-26T07:35:52.610Z,27.60
2022-08-26T07:38:23.866Z,27.60
2022-08-26T07:40:55.649Z,27.60
2022-08-26T07:43:26.784Z,27.60
2022-08-26T07:45:59.580Z,27.60
2022-08-26T07:48:30.395Z,27.70
2022-08-26T07:51:03.263Z,27.70
2022-08-26T07:53:34.123Z,27.70
2022-08-26T07:56:06.105Z,27.70
2022-08-26T07:58:37.291Z,27.70
2022-08-26T08:01:09.086Z,27.70
2022-08-26T08:03:42.010Z,27.70
2022-08-26T08:06:12.895Z,27.70
2022-08-26T08:08:43.811Z,27.70
2022-08-26T08:11:14.650Z,27.70
2022-08-26T08:13:45.561Z,27.80
2022-08-26T08:16:17.108Z,27.80
2022-08-26T08:18:48.253Z,27.90
2022-08-26T08:21:21.760Z,28.00
2022-08-26T08:23:54.170Z,28.00
2022-08-26T08:26:26.138Z,28.00
2022-08-26T08:28:58.919Z,28.00
2022-08-26T08:31:56.897Z,28.00
2022-08-26T08:34:04.587Z,28.10
2022-08-26T08:36:36.420Z,28.10
2022-08-26T08:39:07.260Z,28.10
2022-08-26T08:41:40.889Z,28.10
2022-08-26T08:44:14.100Z,28.10
2022-08-26T08:46:46.719Z,28.10
2022-08-26T08:49:19.095Z,28.10
2022-08-26T08:51:50.837Z,28.10
2022-08-26T08:54:22.133Z,28.10
2022-08-26T08:56:55.732Z,28.10
2022-08-26T08:59:30.770Z,28.10
2022-08-26T09:02:06.867Z,28.10
2022-08-26T09:04:40.124Z,28.10
2022-08-26T09:07:15.365Z,28.10
2022-08-26T09:09:50.190Z,28.10
2022-08-26T09:12:29.169Z,28.10
2022-08-26T09:14:59.543Z,28.10
2022-08-26T09:17:32.647Z,28.10
2022-08-26T09:20:05.933Z,28.10
2022-08-26T09:22:39.125Z,28.10
2022-08-26T09:25:12.485Z,28.00
2022-08-26T09:27:45.918Z,28.00
2022-08-26T09:30:19.823Z,28.00
2022-08-26T09:32:56.349Z,28.00
2022-08-26T09:35:29.747Z,28.00
2022-08-26T09:38:00.770Z,28.00
2022-08-26T09:40:35.332Z,28.00
2022-08-26T09:43:07.243Z,28.00
2022-08-26T09:45:40.062Z,28.00
2022-08-26T09:48:11.911Z,28.00
2022-08-26T09:50:46.437Z,28.00
2022-08-26T09:53:25.207Z,28.00
2022-08-26T09:55:56.861Z,28.00
2022-08-26T09:58:30.586Z,28.10
2022-08-26T10:01:05.298Z,28.10
2022-08-26T10:03:39.123Z,28.10
2022-08-26T10:06:12.431Z,28.10
2022-08-26T10:08:47.436Z,28.10
2022-08-26T10:11:20.196Z,28.10
2022-08-26T10:13:53.434Z,28.10
2022-08-26T10:16:28.597Z,28.10
2022-08-26T10:19:02.571Z,28.10
2022-08-26T10:21:37.095Z,28.10
2022-08-26T10:24:11.411Z,28.10
2022-08-26T10:26:42.651Z,28.10
2022-08-26T10:29:16.295Z,28.10
2022-08-26T10:31:51.416Z,28.10
2022-08-26T10:34:22.391Z,28.10
2022-08-26T10:37:14.844Z,28.10
2022-08-26T10:39:32.907Z,28.10
2022-08-26T10:42:06.237Z,28.10
2022-08-26T10:44:39.841Z,28.10
2022-08-26T10:47:14.464Z,28.10
2022-08-26T10:49:47.378Z,28.10
2022-08-26T10:52:20.725Z,28.00
2022-08-26T10:54:54.417Z,28.00
2022-08-26T10:57:26.194Z,28.00
2022-08-26T10:59:57.874Z,28.00
2022-08-26T11:02:30.203Z,28.00
2022-08-26T11:05:04.573Z,28.00
2022-08-26T11:07:37.710Z,28.00
2022-08-26T11:10:10.983Z,28.00
2022-08-26T11:12:43.233Z,28.00
2022-08-26T11:15:16.979Z,27.90
2022-08-26T11:17:47.550Z,27.90
2022-08-26T11:20:21.208Z,27.90
2022-08-26T11:22:55.192Z,27.90
2022-08-26T11:25:30.841Z,27.90
2022-08-26T11:28:01.964Z,27.90
2022-08-26T11:30:35.127Z,27.90
2022-08-26T11:33:06.708Z,27.90
2022-08-26T11:35:37.473Z,27.90
2022-08-26T11:38:11.297Z,27.90
2022-08-26T11:40:43.442Z,27.90
2022-08-26T11:43:15.004Z,27.80
2022-08-26T11:45:48.649Z,27.90
2022-08-26T11:48:22.119Z,27.80
2022-08-26T11:50:56.611Z,27.80
2022-08-26T11:53:29.900Z,27.80
2022-08-26T11:56:02.665Z,27.80
2022-08-26T11:58:34.396Z,27.80
2022-08-26T12:01:09.816Z,27.80
2022-08-26T12:03:43.106Z,27.80
2022-08-26T12:06:17.259Z,27.80
2022-08-26T12:08:49.343Z,27.80
2022-08-26T12:11:22.477Z,27.80
2022-08-26T12:13:55.651Z,27.80
2022-08-26T12:16:28.968Z,27.80
2022-08-26T12:19:00.740Z,27.80
2022-08-26T12:21:34.728Z,27.70
2022-08-26T12:24:06.691Z,27.20
2022-08-26T12:26:40.620Z,26.40
2022-08-26T12:31:46.184Z,25.30
2022-08-26T12:34:19.179Z,25.10
2022-08-26T12:36:52.446Z,25.00
2022-08-26T12:39:25.963Z,25.00
2022-08-26T12:41:59.512Z,25.00
2022-08-26T12:44:33.287Z,24.90
2022-08-26T12:47:06.570Z,24.90
2022-08-26T12:49:40.714Z,24.90
2022-08-26T12:52:15.299Z,24.90
2022-08-26T12:54:56.090Z,24.90
2022-08-26T12:57:25.682Z,25.00
2022-08-26T13:00:02.254Z,25.00
2022-08-26T13:02:36.179Z,25.00
2022-08-26T13:05:08.462Z,25.00
2022-08-26T13:07:39.374Z,25.00
2022-08-26T13:10:10.762Z,25.00
2022-08-26T13:12:42.629Z,25.00
2022-08-26T13:15:13.544Z,25.00
2022-08-26T13:17:44.669Z,25.00
2022-08-26T13:20:15.393Z,25.00
2022-08-26T13:22:46.339Z,25.00
2022-08-26T13:25:19.796Z,25.00
2022-08-26T13:27:50.668Z,25.10
2022-08-26T13:30:21.730Z,25.10
2022-08-26T13:32:56.221Z,25.10
2022-08-26T13:35:27.847Z,25.10
2022-08-26T13:37:59.079Z,25.10
2022-08-26T13:40:34.293Z,25.20
2022-08-26T13:43:14.261Z,25.10
2022-08-26T13:45:47.862Z,25.20
2022-08-26T13:51:22.981Z,25.20
2022-08-26T13:53:59.843Z,25.10
2022-08-26T13:56:34.456Z,25.20
2022-08-26T13:59:06.577Z,25.10
2022-08-26T14:01:42.268Z,25.10
2022-08-26T14:04:14.421Z,25.10
2022-08-26T14:06:48.114Z,25.10
2022-08-26T14:09:25.259Z,25.20
2022-08-26T14:12:01.084Z,25.10
2022-08-26T14:14:34.305Z,25.10
2022-08-26T14:17:09.494Z,25.10
2022-08-26T14:19:45.681Z,25.20
2022-08-26T14:22:22.086Z,25.20
2022-08-26T14:25:03.083Z,25.20
2022-08-26T14:27:37.424Z,25.20
2022-08-26T14:30:10.507Z,25.20
2022-08-26T14:32:44.008Z,25.20
2022-08-26T14:38:14.708Z,25.20
2022-08-26T14:40:46.488Z,25.20
2022-08-26T14:43:26.113Z,25.20
2022-08-26T14:45:59.407Z,25.20
2022-08-26T14:48:33.794Z,25.20
2022-08-26T14:51:05.918Z,25.20
2022-08-26T14:53:38.122Z,25.20
2022-08-26T14:56:14.892Z,25.20
2022-08-26T14:58:42.855Z,25.20
2022-08-26T15:01:27.995Z,25.20
2022-08-26T15:03:56.058Z,25.20
2022-08-26T15:06:27.131Z,25.20
2022-08-26T15:08:58.972Z,25.10
2022-08-26T15:11:30.255Z,25.20
2022-08-26T15:14:04.409Z,25.20
2022-08-26T15:16:39.297Z,25.20
2022-08-26T15:19:12.566Z,25.20
2022-08-26T15:21:43.068Z,25.30
2022-08-26T15:24:16.920Z,25.30
2022-08-26T15:26:48.019Z,25.20
2022-08-26T15:29:19.590Z,25.30
2022-08-26T15:31:57.657Z,25.30
2022-08-26T15:34:25.691Z,25.30
2022-08-26T15:37:01.204Z,25.30
2022-08-26T15:39:36.747Z,25.30
2022-08-26T15:42:07.704Z,25.30
2022-08-26T15:44:39.716Z,25.30
2022-08-26T15:47:13.970Z,25.30
2022-08-26T15:49:46.062Z,25.30
2022-08-26T15:52:20.280Z,25.30
2022-08-26T15:54:52.780Z,25.30
2022-08-26T15:57:34.295Z,25.30
2022-08-26T16:03:00.564Z,25.30
2022-08-26T16:05:33.364Z,25.30
2022-08-26T16:08:04.908Z,25.30
2022-08-26T16:10:41.164Z,25.30
2022-08-26T16:13:16.134Z,25.30
2022-08-26T16:15:45.032Z,25.30
2022-08-26T16:18:18.689Z,25.30
2022-08-26T16:21:12.654Z,25.30
2022-08-26T16:23:31.685Z,25.30
2022-08-26T16:26:06.454Z,25.30
2022-08-26T16:28:38.718Z,25.30
2022-08-26T16:31:14.909Z,25.30
2022-08-26T16:33:45.934Z,25.30
2022-08-26T16:36:17.927Z,25.30
2022-08-26T16:38:51.482Z,25.30
2022-08-26T16:41:23.062Z,25.30
2022-08-26T16:43:56.230Z,25.30
2022-08-26T16:46:32.466Z,25.20
2022-08-26T16:49:05.180Z,25.30
2022-08-26T16:52:11.035Z,25.30
2022-08-26T16:54:48.739Z,25.30
2022-08-26T16:57:19.990Z,25.20
2022-08-26T16:59:51.018Z,25.30
2022-08-26T17:02:22.108Z,25.30
2022-08-26T17:04:54.252Z,25.30
2022-08-26T17:07:26.607Z,25.30
2022-08-26T17:09:58.159Z,25.30
2022-08-26T17:12:31.330Z,25.30
2022-08-26T17:15:07.521Z,25.20
2022-08-26T17:17:41.739Z,25.30
2022-08-26T17:20:20.035Z,25.30
2022-08-26T17:22:53.631Z,25.20
2022-08-26T17:25:27.203Z,25.30
2022-08-26T17:27:59.645Z,25.30
2022-08-26T17:30:30.788Z,25.30
2022-08-26T17:33:02.331Z,25.30
2022-08-26T17:35:36.012Z,25.30
2022-08-26T17:38:07.213Z,25.20
2022-08-26T17:40:38.083Z,25.20
2022-08-26T17:43:12.174Z,25.20
2022-08-26T17:45:42.716Z,25.20
2022-08-26T17:48:14.273Z,25.20
2022-08-26T17:50:49.815Z,25.20
2022-08-26T17:53:24.570Z,25.20
2022-08-26T17:55:56.836Z,25.20
2022-08-26T17:58:27.890Z,25.20
2022-08-26T18:01:01.951Z,25.20
2022-08-26T18:03:33.793Z,25.20
2022-08-26T18:06:05.323Z,25.30
2022-08-26T18:08:36.142Z,25.30
2022-08-26T18:11:09.355Z,25.30
2022-08-26T18:13:47.016Z,25.30
2022-08-26T18:16:18.254Z,25.30
2022-08-26T18:18:52.938Z,25.30
2022-08-26T18:21:36.281Z,25.30
2022-08-26T18:24:13.375Z,25.30
2022-08-26T18:26:44.086Z,25.30
2022-08-26T18:29:14.886Z,25.30
2022-08-26T18:31:47.640Z,25.30
2022-08-26T18:34:20.742Z,25.40
2022-08-26T18:36:51.786Z,25.30
2022-08-26T18:39:23.601Z,25.30
2022-08-26T18:41:55.398Z,25.30
2022-08-26T18:44:26.144Z,25.30
2022-08-26T18:46:58.466Z,25.30
2022-08-26T18:49:30.568Z,25.30
2022-08-26T18:52:01.632Z,25.40
2022-08-26T18:54:32.610Z,25.40
2022-08-26T18:57:04.551Z,25.30
2022-08-26T18:59:36.738Z,25.40
2022-08-26T19:02:07.993Z,25.40
2022-08-26T19:04:39.941Z,25.40
2022-08-26T19:07:11.279Z,25.40
2022-08-26T19:09:42.098Z,25.40
2022-08-26T19:12:13.649Z,25.40
2022-08-26T19:14:44.302Z,25.40
2022-08-26T19:17:18.396Z,25.30
2022-08-26T19:19:50.909Z,25.40
2022-08-26T19:22:21.735Z,25.40
2022-08-26T19:24:52.682Z,25.30
2022-08-26T19:27:23.444Z,25.40
2022-08-26T19:29:54.289Z,25.30
2022-08-26T19:32:25.672Z,25.30
2022-08-26T19:34:56.819Z,25.30
2022-08-26T19:37:27.660Z,25.40
2022-08-26T19:40:00.477Z,25.40
2022-08-26T19:42:31.478Z,25.40
2022-08-26T19:45:03.641Z,25.40
2022-08-26T19:47:34.428Z,25.40
2022-08-26T19:50:06.881Z,25.40
2022-08-26T19:52:38.607Z,25.40
2022-08-26T19:55:11.742Z,25.40
2022-08-26T19:57:43.194Z,25.40
2022-08-26T20:00:16.634Z,25.40
2022-08-26T20:02:47.848Z,25.40
2022-08-26T20:05:21.794Z,25.40
2022-08-26T20:07:52.957Z,25.40
2022-08-26T20:10:25.653Z,25.40
2022-08-26T20:12:56.785Z,25.40
2022-08-26T20:15:28.410Z,25.40
2022-08-26T20:17:59.983Z,25.50
2022-08-26T20:20:33.413Z,25.50
2022-08-26T20:23:06.497Z,25.50
2022-08-26T20:25:37.612Z,25.50
2022-08-26T20:28:08.806Z,25.50
2022-08-26T20:30:39.705Z,25.50
2022-08-26T20:33:10.638Z,25.50
2022-08-26T20:35:41.679Z,25.50
2022-08-26T20:38:12.924Z,25.50
2022-08-26T20:40:43.865Z,25.50
2022-08-26T20:43:14.812Z,25.50
2022-08-26T20:45:45.647Z,25.50
2022-08-26T20:48:16.992Z,25.40
2022-08-26T20:50:48.137Z,25.50
2022-08-26T20:53:18.880Z,25.50
2022-08-26T20:55:51.744Z,25.50
2022-08-26T20:58:24.529Z,25.50
2022-08-26T21:00:55.501Z,25.50
2022-08-26T21:03:26.972Z,25.50
2022-08-26T21:05:58.163Z,25.50
2022-08-26T21:08:29.411Z,25.50
2022-08-26T21:11:00.351Z,25.50
2022-08-26T21:13:42.836Z,25.50
2022-08-26T21:16:03.709Z,25.50
2022-08-26T21:18:34.585Z,25.50
2022-08-26T21:21:07.870Z,25.50
2022-08-26T21:23:40.167Z,25.50
2022-08-26T21:26:14.581Z,25.50
2022-08-26T21:28:47.510Z,25.50
2022-08-26T21:31:21.234Z,25.50
2022-08-26T21:33:53.283Z,25.50
2022-08-26T21:36:24.077Z,25.50
2022-08-26T21:38:54.911Z,25.50
2022-08-26T21:41:26.343Z,25.40
2022-08-26T21:44:00.348Z,25.40
2022-08-26T21:46:32.815Z,25.50
2022-08-26T21:49:06.117Z,25.40
2022-08-26T21:51:39.775Z,25.40
2022-08-26T21:54:11.828Z,25.40
2022-08-26T21:56:47.073Z,25.50
2022-08-26T21:59:20.490Z,25.40
2022-08-26T22:01:52.351Z,25.40
2022-08-26T22:04:23.962Z,25.40
2022-08-26T22:06:58.935Z,25.40
2022-08-26T22:09:33.052Z,25.50
2022-08-26T22:12:04.120Z,25.40
2022-08-26T22:14:34.911Z,25.40
2022-08-26T22:17:05.967Z,25.50
2022-08-26T22:19:43.353Z,25.40
2022-08-26T22:22:08.859Z,25.50
2022-08-26T22:24:39.505Z,25.40
2022-08-26T22:27:10.712Z,25.40
2022-08-26T22:29:41.966Z,25.50
2022-08-26T22:32:12.937Z,25.50
2022-08-26T22:34:44.041Z,25.50
2022-08-26T22:37:14.993Z,25.50
2022-08-26T22:39:45.917Z,25.50
2022-08-26T22:42:17.064Z,25.50
2022-08-26T22:44:48.515Z,25.50
2022-08-26T22:47:19.964Z,25.40
2022-08-26T22:49:51.004Z,25.40
2022-08-26T22:52:21.944Z,25.40
2022-08-26T22:54:54.547Z,25.40
2022-08-26T22:57:25.625Z,25.40
2022-08-26T22:59:56.500Z,25.50
2022-08-26T23:02:27.445Z,25.40
2022-08-26T23:04:58.178Z,25.40
2022-08-26T23:07:29.024Z,25.40
2022-08-26T23:09:59.831Z,25.40
2022-08-26T23:12:30.993Z,25.40
2022-08-26T23:15:02.340Z,25.30
2022-08-26T23:20:12.922Z,25.30
2022-08-26T23:22:44.065Z,25.30
2022-08-26T23:25:15.387Z,25.30
2022-08-26T23:27:46.424Z,25.30
2022-08-26T23:30:19.754Z,25.30
2022-08-26T23:32:51.092Z,25.30
2022-08-26T23:35:22.946Z,25.30
2022-08-26T23:37:55.273Z,25.30
2022-08-26T23:40:29.950Z,25.30
2022-08-26T23:43:04.281Z,25.40
2022-08-26T23:45:36.266Z,25.40
2022-08-26T23:48:08.073Z,25.40
2022-08-26T23:50:40.269Z,25.40
2022-08-26T23:53:12.568Z,25.50
2022-08-26T23:55:43.686Z,25.50
2022-08-26T23:58:14.322Z,25.50
